sensor_id;sensor_type;location;lat;lon;timestamp;P1;durP1;ratioP1;P2;durP2;ratioP2
44750;SDS011;30477;48.224;11.470;2023-04-05T00:00:11;15.83;;;12.10;;
44750;SDS011;30477;48.224;11.470;2023-04-05T00:02:37;16.52;;;11.95;;
44750;SDS011;30477;48.224;11.470;2023-04-05T00:05:05;15.45;;;12.13;;
44750;SDS011;30477;48.224;11.470;2023-04-05T00:07:31;15.00;;;12.13;;
44750;SDS011;30477;48.224;11.470;2023-04-05T00:09:58;14.88;;;11.90;;
44750;SDS011;30477;48.224;11.470;2023-04-05T00:12:24;16.17;;;11.75;;
44750;SDS011;30477;48.224;11.470;2023-04-05T00:14:49;17.27;;;13.53;;
44750;SDS011;30477;48.224;11.470;2023-04-05T00:17:15;20.10;;;12.33;;
44750;SDS011;30477;48.224;11.470;2023-04-05T00:19:42;18.15;;;12.27;;
44750;SDS011;30477;48.224;11.470;2023-04-05T00:22:09;15.60;;;11.90;;
44750;SDS011;30477;48.224;11.470;2023-04-05T00:24:35;18.05;;;12.25;;
44750;SDS011;30477;48.224;11.470;2023-04-05T00:27:05;16.15;;;12.65;;
44750;SDS011;30477;48.224;11.470;2023-04-05T00:29:31;18.53;;;12.40;;
44750;SDS011;30477;48.224;11.470;2023-04-05T00:31:56;16.17;;;12.37;;
44750;SDS011;30477;48.224;11.470;2023-04-05T00:34:21;18.07;;;12.10;;
44750;SDS011;30477;48.224;11.470;2023-04-05T00:36:47;15.30;;;11.73;;
44750;SDS011;30477;48.224;11.470;2023-04-05T00:39:13;15.25;;;11.52;;
44750;SDS011;30477;48.224;11.470;2023-04-05T00:41:38;16.13;;;12.83;;
44750;SDS011;30477;48.224;11.470;2023-04-05T00:44:04;16.45;;;12.00;;
44750;SDS011;30477;48.224;11.470;2023-04-05T00:46:34;16.48;;;11.57;;
44750;SDS011;30477;48.224;11.470;2023-04-05T00:49:02;15.02;;;10.82;;
44750;SDS011;30477;48.224;11.470;2023-04-05T00:51:29;14.95;;;11.38;;
44750;SDS011;30477;48.224;11.470;2023-04-05T00:53:57;20.17;;;12.35;;
44750;SDS011;30477;48.224;11.470;2023-04-05T00:56:23;18.00;;;11.90;;
44750;SDS011;30477;48.224;11.470;2023-04-05T00:58:49;16.27;;;11.93;;
44750;SDS011;30477;48.224;11.470;2023-04-05T01:01:16;16.80;;;11.77;;
44750;SDS011;30477;48.224;11.470;2023-04-05T01:03:46;15.07;;;11.48;;
44750;SDS011;30477;48.224;11.470;2023-04-05T01:11:50;15.70;;;11.63;;
44750;SDS011;30477;48.224;11.470;2023-04-05T01:14:19;16.25;;;11.77;;
44750;SDS011;30477;48.224;11.470;2023-04-05T01:16:45;17.03;;;12.00;;
44750;SDS011;30477;48.224;11.470;2023-04-05T01:19:13;16.63;;;12.48;;
44750;SDS011;30477;48.224;11.470;2023-04-05T01:25:09;20.33;;;12.38;;
44750;SDS011;30477;48.224;11.470;2023-04-05T01:30:23;17.05;;;11.93;;
44750;SDS011;30477;48.224;11.470;2023-04-05T01:32:56;18.77;;;12.10;;
44750;SDS011;30477;48.224;11.470;2023-04-05T01:35:36;11.60;;;9.30;;
44750;SDS011;30477;48.224;11.470;2023-04-05T01:38:06;18.73;;;13.00;;
44750;SDS011;30477;48.224;11.470;2023-04-05T01:40:36;17.65;;;12.25;;
44750;SDS011;30477;48.224;11.470;2023-04-05T01:43:10;16.70;;;12.27;;
44750;SDS011;30477;48.224;11.470;2023-04-05T01:45:37;17.75;;;12.15;;
44750;SDS011;30477;48.224;11.470;2023-04-05T01:48:02;17.77;;;11.97;;
44750;SDS011;30477;48.224;11.470;2023-04-05T01:50:27;15.43;;;11.70;;
44750;SDS011;30477;48.224;11.470;2023-04-05T01:52:53;19.90;;;12.23;;
44750;SDS011;30477;48.224;11.470;2023-04-05T01:55:18;17.90;;;12.30;;
44750;SDS011;30477;48.224;11.470;2023-04-05T01:57:43;15.77;;;11.50;;
44750;SDS011;30477;48.224;11.470;2023-04-05T02:00:09;15.90;;;12.13;;
44750;SDS011;30477;48.224;11.470;2023-04-05T02:02:35;18.05;;;12.63;;
44750;SDS011;30477;48.224;11.470;2023-04-05T02:05:00;17.37;;;12.50;;
44750;SDS011;30477;48.224;11.470;2023-04-05T02:07:25;18.17;;;11.93;;
44750;SDS011;30477;48.224;11.470;2023-04-05T02:09:51;14.43;;;11.03;;
44750;SDS011;30477;48.224;11.470;2023-04-05T02:12:16;15.47;;;10.83;;
44750;SDS011;30477;48.224;11.470;2023-04-05T02:14:41;16.33;;;12.10;;
44750;SDS011;30477;48.224;11.470;2023-04-05T02:17:07;14.73;;;12.03;;
44750;SDS011;30477;48.224;11.470;2023-04-05T02:19:32;16.93;;;12.00;;
44750;SDS011;30477;48.224;11.470;2023-04-05T02:22:04;19.05;;;13.40;;
44750;SDS011;30477;48.224;11.470;2023-04-05T02:24:30;15.05;;;12.52;;
44750;SDS011;30477;48.224;11.470;2023-04-05T02:26:55;16.00;;;12.37;;
44750;SDS011;30477;48.224;11.470;2023-04-05T02:29:21;17.70;;;13.38;;
44750;SDS011;30477;48.224;11.470;2023-04-05T02:31:46;17.93;;;11.37;;
44750;SDS011;30477;48.224;11.470;2023-04-05T02:34:12;14.40;;;10.40;;
44750;SDS011;30477;48.224;11.470;2023-04-05T02:36:38;18.73;;;11.50;;
44750;SDS011;30477;48.224;11.470;2023-04-05T02:39:05;14.82;;;10.68;;
44750;SDS011;30477;48.224;11.470;2023-04-05T02:41:31;16.63;;;12.32;;
44750;SDS011;30477;48.224;11.470;2023-04-05T02:43:56;17.20;;;11.10;;
44750;SDS011;30477;48.224;11.470;2023-04-05T02:46:23;15.05;;;11.77;;
44750;SDS011;30477;48.224;11.470;2023-04-05T02:48:49;14.25;;;11.13;;
44750;SDS011;30477;48.224;11.470;2023-04-05T02:51:15;14.93;;;11.60;;
44750;SDS011;30477;48.224;11.470;2023-04-05T02:53:40;18.70;;;12.03;;
44750;SDS011;30477;48.224;11.470;2023-04-05T02:56:06;14.15;;;11.52;;
44750;SDS011;30477;48.224;11.470;2023-04-05T02:58:32;18.33;;;12.40;;
44750;SDS011;30477;48.224;11.470;2023-04-05T03:00:58;15.53;;;11.50;;
44750;SDS011;30477;48.224;11.470;2023-04-05T03:03:25;14.82;;;11.20;;
44750;SDS011;30477;48.224;11.470;2023-04-05T03:05:56;17.65;;;11.73;;
44750;SDS011;30477;48.224;11.470;2023-04-05T03:08:24;15.25;;;11.23;;
44750;SDS011;30477;48.224;11.470;2023-04-05T03:10:50;17.23;;;11.60;;
44750;SDS011;30477;48.224;11.470;2023-04-05T03:13:16;15.50;;;11.48;;
44750;SDS011;30477;48.224;11.470;2023-04-05T03:15:42;16.80;;;12.00;;
44750;SDS011;30477;48.224;11.470;2023-04-05T03:18:07;16.77;;;12.23;;
44750;SDS011;30477;48.224;11.470;2023-04-05T03:20:33;14.73;;;11.68;;
44750;SDS011;30477;48.224;11.470;2023-04-05T03:23:07;17.27;;;11.75;;
44750;SDS011;30477;48.224;11.470;2023-04-05T03:25:36;17.45;;;12.27;;
44750;SDS011;30477;48.224;11.470;2023-04-05T03:28:05;15.93;;;11.82;;
44750;SDS011;30477;48.224;11.470;2023-04-05T03:30:32;16.77;;;12.05;;
44750;SDS011;30477;48.224;11.470;2023-04-05T03:32:58;18.13;;;14.02;;
44750;SDS011;30477;48.224;11.470;2023-04-05T03:35:27;18.20;;;13.18;;
44750;SDS011;30477;48.224;11.470;2023-04-05T03:37:53;17.92;;;13.13;;
44750;SDS011;30477;48.224;11.470;2023-04-05T03:40:21;17.23;;;12.90;;
44750;SDS011;30477;48.224;11.470;2023-04-05T03:42:47;18.17;;;12.48;;
44750;SDS011;30477;48.224;11.470;2023-04-05T03:45:13;17.45;;;13.15;;
44750;SDS011;30477;48.224;11.470;2023-04-05T03:47:38;20.13;;;14.53;;
44750;SDS011;30477;48.224;11.470;2023-04-05T03:50:04;19.33;;;13.63;;
44750;SDS011;30477;48.224;11.470;2023-04-05T03:52:30;19.67;;;13.82;;
44750;SDS011;30477;48.224;11.470;2023-04-05T03:54:55;20.83;;;14.30;;
44750;SDS011;30477;48.224;11.470;2023-04-05T03:57:20;18.67;;;14.10;;
44750;SDS011;30477;48.224;11.470;2023-04-05T03:59:46;19.02;;;13.48;;
44750;SDS011;30477;48.224;11.470;2023-04-05T04:02:11;19.17;;;13.77;;
44750;SDS011;30477;48.224;11.470;2023-04-05T04:04:37;20.03;;;14.50;;
44750;SDS011;30477;48.224;11.470;2023-04-05T04:07:02;21.23;;;14.43;;
44750;SDS011;30477;48.224;11.470;2023-04-05T04:09:27;18.83;;;12.80;;
44750;SDS011;30477;48.224;11.470;2023-04-05T04:11:54;17.10;;;12.23;;
44750;SDS011;30477;48.224;11.470;2023-04-05T04:14:20;15.98;;;12.25;;
44750;SDS011;30477;48.224;11.470;2023-04-05T04:16:46;16.30;;;11.87;;
44750;SDS011;30477;48.224;11.470;2023-04-05T04:19:11;16.80;;;13.13;;
44750;SDS011;30477;48.224;11.470;2023-04-05T04:21:36;15.50;;;12.00;;
44750;SDS011;30477;48.224;11.470;2023-04-05T04:24:03;18.40;;;12.57;;
44750;SDS011;30477;48.224;11.470;2023-04-05T04:26:29;18.70;;;11.93;;
44750;SDS011;30477;48.224;11.470;2023-04-05T04:29:01;18.80;;;13.13;;
44750;SDS011;30477;48.224;11.470;2023-04-05T04:31:27;15.35;;;12.23;;
44750;SDS011;30477;48.224;11.470;2023-04-05T04:33:53;17.83;;;12.45;;
44750;SDS011;30477;48.224;11.470;2023-04-05T04:38:58;16.75;;;12.48;;
44750;SDS011;30477;48.224;11.470;2023-04-05T04:41:24;15.97;;;12.53;;
44750;SDS011;30477;48.224;11.470;2023-04-05T04:43:50;17.77;;;12.20;;
44750;SDS011;30477;48.224;11.470;2023-04-05T04:46:19;18.85;;;12.35;;
44750;SDS011;30477;48.224;11.470;2023-04-05T04:48:45;18.08;;;12.95;;
44750;SDS011;30477;48.224;11.470;2023-04-05T04:51:11;19.42;;;12.95;;
44750;SDS011;30477;48.224;11.470;2023-04-05T04:53:36;17.27;;;12.60;;
44750;SDS011;30477;48.224;11.470;2023-04-05T04:56:08;15.93;;;12.50;;
44750;SDS011;30477;48.224;11.470;2023-04-05T04:58:33;17.17;;;13.02;;
44750;SDS011;30477;48.224;11.470;2023-04-05T05:00:59;19.85;;;12.48;;
44750;SDS011;30477;48.224;11.470;2023-04-05T05:03:25;20.52;;;12.80;;
44750;SDS011;30477;48.224;11.470;2023-04-05T05:05:50;21.40;;;13.23;;
44750;SDS011;30477;48.224;11.470;2023-04-05T05:08:17;17.42;;;13.27;;
44750;SDS011;30477;48.224;11.470;2023-04-05T05:10:43;18.33;;;12.70;;
44750;SDS011;30477;48.224;11.470;2023-04-05T05:13:09;15.95;;;12.25;;
44750;SDS011;30477;48.224;11.470;2023-04-05T05:15:35;19.40;;;13.07;;
44750;SDS011;30477;48.224;11.470;2023-04-05T05:18:00;22.30;;;14.03;;
44750;SDS011;30477;48.224;11.470;2023-04-05T05:20:25;23.47;;;13.53;;
44750;SDS011;30477;48.224;11.470;2023-04-05T05:22:54;19.63;;;12.70;;
44750;SDS011;30477;48.224;11.470;2023-04-05T05:25:19;22.60;;;13.35;;
44750;SDS011;30477;48.224;11.470;2023-04-05T05:27:49;19.60;;;12.98;;
44750;SDS011;30477;48.224;11.470;2023-04-05T05:30:15;19.67;;;12.35;;
44750;SDS011;30477;48.224;11.470;2023-04-05T05:32:40;14.98;;;11.98;;
44750;SDS011;30477;48.224;11.470;2023-04-05T05:35:07;16.08;;;11.40;;
44750;SDS011;30477;48.224;11.470;2023-04-05T05:37:33;23.25;;;12.80;;
44750;SDS011;30477;48.224;11.470;2023-04-05T05:39:59;17.33;;;11.77;;
44750;SDS011;30477;48.224;11.470;2023-04-05T05:42:24;15.53;;;12.17;;
44750;SDS011;30477;48.224;11.470;2023-04-05T05:44:51;17.88;;;12.50;;
44750;SDS011;30477;48.224;11.470;2023-04-05T05:47:16;18.52;;;12.45;;
44750;SDS011;30477;48.224;11.470;2023-04-05T05:49:42;17.43;;;11.77;;
44750;SDS011;30477;48.224;11.470;2023-04-05T05:52:07;15.93;;;11.73;;
44750;SDS011;30477;48.224;11.470;2023-04-05T05:54:32;15.13;;;11.23;;
44750;SDS011;30477;48.224;11.470;2023-04-05T05:56:58;17.63;;;12.20;;
44750;SDS011;30477;48.224;11.470;2023-04-05T05:59:23;16.93;;;12.30;;
44750;SDS011;30477;48.224;11.470;2023-04-05T06:01:49;15.10;;;11.90;;
44750;SDS011;30477;48.224;11.470;2023-04-05T06:06:40;17.63;;;11.50;;
44750;SDS011;30477;48.224;11.470;2023-04-05T06:09:10;13.50;;;10.98;;
44750;SDS011;30477;48.224;11.470;2023-04-05T06:11:36;17.30;;;11.60;;
44750;SDS011;30477;48.224;11.470;2023-04-05T06:14:01;16.33;;;10.50;;
44750;SDS011;30477;48.224;11.470;2023-04-05T06:16:26;14.60;;;11.37;;
44750;SDS011;30477;48.224;11.470;2023-04-05T06:18:54;15.77;;;11.13;;
44750;SDS011;30477;48.224;11.470;2023-04-05T06:21:20;18.67;;;10.88;;
44750;SDS011;30477;48.224;11.470;2023-04-05T06:23:46;16.33;;;10.63;;
44750;SDS011;30477;48.224;11.470;2023-04-05T06:26:15;14.02;;;11.02;;
44750;SDS011;30477;48.224;11.470;2023-04-05T06:28:45;12.20;;;10.18;;
44750;SDS011;30477;48.224;11.470;2023-04-05T06:31:14;15.70;;;10.38;;
44750;SDS011;30477;48.224;11.470;2023-04-05T06:33:40;12.98;;;9.98;;
44750;SDS011;30477;48.224;11.470;2023-04-05T06:36:06;18.15;;;10.20;;
44750;SDS011;30477;48.224;11.470;2023-04-05T06:38:32;13.98;;;10.23;;
44750;SDS011;30477;48.224;11.470;2023-04-05T06:40:57;19.07;;;10.40;;
44750;SDS011;30477;48.224;11.470;2023-04-05T06:43:22;14.37;;;9.67;;
44750;SDS011;30477;48.224;11.470;2023-04-05T06:45:47;12.07;;;9.60;;
44750;SDS011;30477;48.224;11.470;2023-04-05T06:48:13;14.27;;;9.33;;
44750;SDS011;30477;48.224;11.470;2023-04-05T06:50:38;14.27;;;10.03;;
44750;SDS011;30477;48.224;11.470;2023-04-05T06:53:04;13.43;;;9.10;;
44750;SDS011;30477;48.224;11.470;2023-04-05T06:55:30;12.18;;;8.55;;
44750;SDS011;30477;48.224;11.470;2023-04-05T06:57:56;14.00;;;8.93;;
44750;SDS011;30477;48.224;11.470;2023-04-05T07:00:22;12.80;;;9.00;;
44750;SDS011;30477;48.224;11.470;2023-04-05T07:02:47;13.05;;;8.27;;
44750;SDS011;30477;48.224;11.470;2023-04-05T07:05:13;11.27;;;8.17;;
44750;SDS011;30477;48.224;11.470;2023-04-05T07:07:41;17.13;;;8.37;;
44750;SDS011;30477;48.224;11.470;2023-04-05T07:10:09;12.48;;;8.00;;
44750;SDS011;30477;48.224;11.470;2023-04-05T07:12:35;12.57;;;8.25;;
44750;SDS011;30477;48.224;11.470;2023-04-05T07:15:01;15.60;;;7.90;;
44750;SDS011;30477;48.224;11.470;2023-04-05T07:17:26;15.20;;;8.37;;
44750;SDS011;30477;48.224;11.470;2023-04-05T07:19:52;14.03;;;8.20;;
44750;SDS011;30477;48.224;11.470;2023-04-05T07:22:17;14.37;;;8.50;;
44750;SDS011;30477;48.224;11.470;2023-04-05T07:24:45;13.60;;;7.93;;
44750;SDS011;30477;48.224;11.470;2023-04-05T07:27:12;13.55;;;7.63;;
44750;SDS011;30477;48.224;11.470;2023-04-05T07:29:38;10.47;;;7.60;;
44750;SDS011;30477;48.224;11.470;2023-04-05T07:32:06;11.73;;;7.70;;
44750;SDS011;30477;48.224;11.470;2023-04-05T07:34:32;12.73;;;7.23;;
44750;SDS011;30477;48.224;11.470;2023-04-05T07:36:58;11.40;;;7.45;;
44750;SDS011;30477;48.224;11.470;2023-04-05T07:39:23;10.87;;;7.00;;
44750;SDS011;30477;48.224;11.470;2023-04-05T07:41:49;13.50;;;7.57;;
44750;SDS011;30477;48.224;11.470;2023-04-05T07:44:15;10.75;;;6.22;;
44750;SDS011;30477;48.224;11.470;2023-04-05T07:46:40;12.40;;;7.10;;
44750;SDS011;30477;48.224;11.470;2023-04-05T07:49:08;12.80;;;7.45;;
44750;SDS011;30477;48.224;11.470;2023-04-05T07:51:34;12.77;;;7.23;;
44750;SDS011;30477;48.224;11.470;2023-04-05T07:54:01;10.85;;;6.85;;
44750;SDS011;30477;48.224;11.470;2023-04-05T07:56:27;11.35;;;7.43;;
44750;SDS011;30477;48.224;11.470;2023-04-05T07:58:54;9.77;;;6.68;;
44750;SDS011;30477;48.224;11.470;2023-04-05T08:01:19;10.87;;;6.87;;
44750;SDS011;30477;48.224;11.470;2023-04-05T08:03:45;10.93;;;7.32;;
44750;SDS011;30477;48.224;11.470;2023-04-05T08:06:14;11.47;;;7.00;;
44750;SDS011;30477;48.224;11.470;2023-04-05T08:08:43;11.05;;;7.03;;
44750;SDS011;30477;48.224;11.470;2023-04-05T08:13:35;11.98;;;7.20;;
44750;SDS011;30477;48.224;11.470;2023-04-05T08:16:02;10.35;;;6.90;;
44750;SDS011;30477;48.224;11.470;2023-04-05T08:18:28;11.57;;;7.30;;
44750;SDS011;30477;48.224;11.470;2023-04-05T08:20:53;9.63;;;6.67;;
44750;SDS011;30477;48.224;11.470;2023-04-05T08:23:20;8.95;;;6.20;;
44750;SDS011;30477;48.224;11.470;2023-04-05T08:25:45;8.20;;;6.27;;
44750;SDS011;30477;48.224;11.470;2023-04-05T08:28:11;9.47;;;6.67;;
44750;SDS011;30477;48.224;11.470;2023-04-05T08:30:37;7.53;;;6.07;;
44750;SDS011;30477;48.224;11.470;2023-04-05T08:33:03;9.82;;;6.47;;
44750;SDS011;30477;48.224;11.470;2023-04-05T08:35:28;9.10;;;6.30;;
44750;SDS011;30477;48.224;11.470;2023-04-05T08:37:54;11.32;;;6.35;;
44750;SDS011;30477;48.224;11.470;2023-04-05T08:40:19;8.83;;;6.17;;
44750;SDS011;30477;48.224;11.470;2023-04-05T08:42:46;10.17;;;6.40;;
44750;SDS011;30477;48.224;11.470;2023-04-05T08:45:21;9.77;;;6.28;;
44750;SDS011;30477;48.224;11.470;2023-04-05T08:47:50;11.10;;;6.50;;
44750;SDS011;30477;48.224;11.470;2023-04-05T08:50:17;8.07;;;6.03;;
44750;SDS011;30477;48.224;11.470;2023-04-05T08:52:42;12.43;;;6.80;;
44750;SDS011;30477;48.224;11.470;2023-04-05T08:55:13;11.50;;;6.70;;
44750;SDS011;30477;48.224;11.470;2023-04-05T08:57:39;10.50;;;6.40;;
44750;SDS011;30477;48.224;11.470;2023-04-05T09:00:08;11.07;;;6.07;;
44750;SDS011;30477;48.224;11.470;2023-04-05T09:02:35;7.60;;;6.40;;
44750;SDS011;30477;48.224;11.470;2023-04-05T09:05:02;7.38;;;6.00;;
44750;SDS011;30477;48.224;11.470;2023-04-05T09:07:31;7.68;;;6.40;;
44750;SDS011;30477;48.224;11.470;2023-04-05T09:09:57;9.70;;;6.50;;
44750;SDS011;30477;48.224;11.470;2023-04-05T09:12:24;6.97;;;5.90;;
44750;SDS011;30477;48.224;11.470;2023-04-05T09:14:50;9.00;;;5.85;;
44750;SDS011;30477;48.224;11.470;2023-04-05T09:17:16;11.55;;;5.60;;
44750;SDS011;30477;48.224;11.470;2023-04-05T09:19:45;8.27;;;5.70;;
44750;SDS011;30477;48.224;11.470;2023-04-05T09:22:14;8.38;;;5.72;;
44750;SDS011;30477;48.224;11.470;2023-04-05T09:24:42;7.55;;;5.50;;
44750;SDS011;30477;48.224;11.470;2023-04-05T09:29:35;7.50;;;5.32;;
44750;SDS011;30477;48.224;11.470;2023-04-05T09:32:02;7.47;;;5.70;;
44750;SDS011;30477;48.224;11.470;2023-04-05T09:34:29;5.95;;;5.32;;
44750;SDS011;30477;48.224;11.470;2023-04-05T09:36:56;6.50;;;5.80;;
44750;SDS011;30477;48.224;11.470;2023-04-05T09:39:31;7.43;;;5.87;;
44750;SDS011;30477;48.224;11.470;2023-04-05T09:42:10;6.75;;;5.93;;
44750;SDS011;30477;48.224;11.470;2023-04-05T09:44:53;9.70;;;6.03;;
44750;SDS011;30477;48.224;11.470;2023-04-05T09:47:19;9.38;;;6.03;;
44750;SDS011;30477;48.224;11.470;2023-04-05T09:49:46;6.47;;;5.63;;
44750;SDS011;30477;48.224;11.470;2023-04-05T09:52:27;7.75;;;5.70;;
44750;SDS011;30477;48.224;11.470;2023-04-05T09:54:56;11.38;;;6.25;;
44750;SDS011;30477;48.224;11.470;2023-04-05T09:57:26;8.95;;;6.07;;
44750;SDS011;30477;48.224;11.470;2023-04-05T09:59:53;8.70;;;6.05;;
44750;SDS011;30477;48.224;11.470;2023-04-05T10:02:20;8.43;;;5.97;;
44750;SDS011;30477;48.224;11.470;2023-04-05T10:04:46;7.97;;;5.88;;
44750;SDS011;30477;48.224;11.470;2023-04-05T10:07:13;6.80;;;5.97;;
44750;SDS011;30477;48.224;11.470;2023-04-05T10:09:40;8.43;;;6.13;;
44750;SDS011;30477;48.224;11.470;2023-04-05T10:12:07;7.65;;;5.82;;
44750;SDS011;30477;48.224;11.470;2023-04-05T10:14:36;9.07;;;5.80;;
44750;SDS011;30477;48.224;11.470;2023-04-05T10:22:35;8.73;;;6.07;;
44750;SDS011;30477;48.224;11.470;2023-04-05T10:25:15;6.65;;;4.88;;
44750;SDS011;30477;48.224;11.470;2023-04-05T10:27:52;7.90;;;5.90;;
44750;SDS011;30477;48.224;11.470;2023-04-05T10:30:23;7.03;;;6.32;;
44750;SDS011;30477;48.224;11.470;2023-04-05T10:33:34;6.25;;;5.63;;
44750;SDS011;30477;48.224;11.470;2023-04-05T10:36:06;7.13;;;6.22;;
44750;SDS011;30477;48.224;11.470;2023-04-05T10:41:21;8.73;;;6.15;;
44750;SDS011;30477;48.224;11.470;2023-04-05T10:43:47;6.97;;;5.80;;
44750;SDS011;30477;48.224;11.470;2023-04-05T10:46:18;12.05;;;6.18;;
44750;SDS011;30477;48.224;11.470;2023-04-05T10:48:47;7.50;;;6.63;;
44750;SDS011;30477;48.224;11.470;2023-04-05T10:51:33;9.50;;;6.15;;
44750;SDS011;30477;48.224;11.470;2023-04-05T10:56:26;8.32;;;5.80;;
44750;SDS011;30477;48.224;11.470;2023-04-05T10:58:52;13.40;;;6.10;;
44750;SDS011;30477;48.224;11.470;2023-04-05T11:01:19;9.63;;;6.53;;
44750;SDS011;30477;48.224;11.470;2023-04-05T11:06:30;10.13;;;6.47;;
44750;SDS011;30477;48.224;11.470;2023-04-05T11:09:08;7.10;;;6.40;;
44750;SDS011;30477;48.224;11.470;2023-04-05T11:11:38;7.72;;;6.10;;
44750;SDS011;30477;48.224;11.470;2023-04-05T11:16:51;8.45;;;6.43;;
44750;SDS011;30477;48.224;11.470;2023-04-05T11:19:19;7.20;;;6.50;;
44750;SDS011;30477;48.224;11.470;2023-04-05T11:21:45;10.30;;;6.53;;
44750;SDS011;30477;48.224;11.470;2023-04-05T11:24:12;9.60;;;6.53;;
44750;SDS011;30477;48.224;11.470;2023-04-05T11:29:11;10.63;;;7.30;;
44750;SDS011;30477;48.224;11.470;2023-04-05T11:31:58;8.57;;;6.88;;
44750;SDS011;30477;48.224;11.470;2023-04-05T11:34:31;7.93;;;6.82;;
44750;SDS011;30477;48.224;11.470;2023-04-05T11:37:00;9.45;;;7.03;;
44750;SDS011;30477;48.224;11.470;2023-04-05T11:39:26;7.77;;;6.93;;
44750;SDS011;30477;48.224;11.470;2023-04-05T11:44:17;10.40;;;6.90;;
44750;SDS011;30477;48.224;11.470;2023-04-05T11:46:44;7.88;;;6.90;;
44750;SDS011;30477;48.224;11.470;2023-04-05T11:49:11;9.43;;;7.20;;
44750;SDS011;30477;48.224;11.470;2023-04-05T11:51:38;9.77;;;6.82;;
44750;SDS011;30477;48.224;11.470;2023-04-05T11:54:06;8.82;;;6.90;;
44750;SDS011;30477;48.224;11.470;2023-04-05T11:56:35;7.40;;;6.63;;
44750;SDS011;30477;48.224;11.470;2023-04-05T12:01:26;8.33;;;6.50;;
44750;SDS011;30477;48.224;11.470;2023-04-05T12:03:52;11.57;;;7.10;;
44750;SDS011;30477;48.224;11.470;2023-04-05T12:06:20;8.07;;;7.28;;
44750;SDS011;30477;48.224;11.470;2023-04-05T12:08:47;7.93;;;6.88;;
44750;SDS011;30477;48.224;11.470;2023-04-05T12:11:36;9.00;;;6.40;;
44750;SDS011;30477;48.224;11.470;2023-04-05T12:14:04;8.02;;;6.70;;
44750;SDS011;30477;48.224;11.470;2023-04-05T12:16:30;8.93;;;6.30;;
44750;SDS011;30477;48.224;11.470;2023-04-05T12:18:56;9.87;;;6.83;;
44750;SDS011;30477;48.224;11.470;2023-04-05T12:21:23;7.57;;;6.80;;
44750;SDS011;30477;48.224;11.470;2023-04-05T12:23:50;10.40;;;7.80;;
44750;SDS011;30477;48.224;11.470;2023-04-05T12:26:16;8.77;;;6.90;;
44750;SDS011;30477;48.224;11.470;2023-04-05T12:28:55;11.15;;;8.02;;
44750;SDS011;30477;48.224;11.470;2023-04-05T12:31:36;11.70;;;7.25;;
44750;SDS011;30477;48.224;11.470;2023-04-05T12:34:09;8.90;;;6.65;;
44750;SDS011;30477;48.224;11.470;2023-04-05T12:36:36;10.23;;;7.22;;
44750;SDS011;30477;48.224;11.470;2023-04-05T12:39:06;37.03;;;21.25;;
44750;SDS011;30477;48.224;11.470;2023-04-05T12:41:33;13.63;;;8.82;;
44750;SDS011;30477;48.224;11.470;2023-04-05T12:43:59;8.98;;;7.07;;
44750;SDS011;30477;48.224;11.470;2023-04-05T12:46:42;11.45;;;8.32;;
44750;SDS011;30477;48.224;11.470;2023-04-05T12:49:11;15.55;;;11.32;;
44750;SDS011;30477;48.224;11.470;2023-04-05T12:51:45;9.57;;;7.60;;
44750;SDS011;30477;48.224;11.470;2023-04-05T12:54:11;16.10;;;11.07;;
44750;SDS011;30477;48.224;11.470;2023-04-05T12:56:38;9.57;;;7.45;;
44750;SDS011;30477;48.224;11.470;2023-04-05T12:59:04;14.93;;;9.97;;
44750;SDS011;30477;48.224;11.470;2023-04-05T13:01:31;10.50;;;7.28;;
44750;SDS011;30477;48.224;11.470;2023-04-05T13:03:57;10.38;;;8.85;;
44750;SDS011;30477;48.224;11.470;2023-04-05T13:06:25;7.75;;;6.93;;
44750;SDS011;30477;48.224;11.470;2023-04-05T13:08:51;9.43;;;6.90;;
44750;SDS011;30477;48.224;11.470;2023-04-05T13:11:16;7.37;;;6.60;;
44750;SDS011;30477;48.224;11.470;2023-04-05T13:13:42;9.57;;;7.37;;
44750;SDS011;30477;48.224;11.470;2023-04-05T13:16:07;8.10;;;7.30;;
44750;SDS011;30477;48.224;11.470;2023-04-05T13:18:32;10.23;;;7.13;;
44750;SDS011;30477;48.224;11.470;2023-04-05T13:20:58;7.77;;;7.03;;
44750;SDS011;30477;48.224;11.470;2023-04-05T13:23:23;7.53;;;6.83;;
44750;SDS011;30477;48.224;11.470;2023-04-05T13:25:48;9.80;;;6.83;;
44750;SDS011;30477;48.224;11.470;2023-04-05T13:28:14;9.23;;;7.23;;
44750;SDS011;30477;48.224;11.470;2023-04-05T13:30:39;8.80;;;7.83;;
44750;SDS011;30477;48.224;11.470;2023-04-05T13:33:05;8.23;;;7.30;;
44750;SDS011;30477;48.224;11.470;2023-04-05T13:35:30;10.47;;;7.87;;
44750;SDS011;30477;48.224;11.470;2023-04-05T13:37:56;8.75;;;7.70;;
44750;SDS011;30477;48.224;11.470;2023-04-05T13:40:22;10.37;;;7.13;;
44750;SDS011;30477;48.224;11.470;2023-04-05T13:42:47;11.60;;;7.93;;
44750;SDS011;30477;48.224;11.470;2023-04-05T13:45:13;8.23;;;7.32;;
44750;SDS011;30477;48.224;11.470;2023-04-05T13:47:38;8.40;;;7.60;;
44750;SDS011;30477;48.224;11.470;2023-04-05T13:50:04;9.77;;;8.13;;
44750;SDS011;30477;48.224;11.470;2023-04-05T13:52:30;8.77;;;7.88;;
44750;SDS011;30477;48.224;11.470;2023-04-05T13:54:55;9.37;;;8.07;;
44750;SDS011;30477;48.224;11.470;2023-04-05T13:57:21;12.10;;;7.63;;
44750;SDS011;30477;48.224;11.470;2023-04-05T13:59:46;14.60;;;8.17;;
44750;SDS011;30477;48.224;11.470;2023-04-05T14:02:11;8.60;;;7.80;;
44750;SDS011;30477;48.224;11.470;2023-04-05T14:04:38;8.90;;;8.00;;
44750;SDS011;30477;48.224;11.470;2023-04-05T14:07:04;9.30;;;7.88;;
44750;SDS011;30477;48.224;11.470;2023-04-05T14:09:31;9.57;;;8.18;;
44750;SDS011;30477;48.224;11.470;2023-04-05T14:14:22;11.40;;;7.63;;
44750;SDS011;30477;48.224;11.470;2023-04-05T14:16:48;9.47;;;7.87;;
44750;SDS011;30477;48.224;11.470;2023-04-05T14:19:13;9.97;;;7.70;;
44750;SDS011;30477;48.224;11.470;2023-04-05T14:21:40;10.32;;;8.48;;
44750;SDS011;30477;48.224;11.470;2023-04-05T14:24:06;9.75;;;7.93;;
44750;SDS011;30477;48.224;11.470;2023-04-05T14:26:31;12.27;;;8.47;;
44750;SDS011;30477;48.224;11.470;2023-04-05T14:28:57;10.93;;;7.73;;
44750;SDS011;30477;48.224;11.470;2023-04-05T14:31:22;10.50;;;7.87;;
44750;SDS011;30477;48.224;11.470;2023-04-05T14:33:49;8.65;;;7.75;;
44750;SDS011;30477;48.224;11.470;2023-04-05T14:36:15;9.10;;;8.02;;
44750;SDS011;30477;48.224;11.470;2023-04-05T14:38:40;10.87;;;7.70;;
44750;SDS011;30477;48.224;11.470;2023-04-05T14:41:05;8.60;;;7.70;;
44750;SDS011;30477;48.224;11.470;2023-04-05T14:45:57;8.52;;;7.65;;
44750;SDS011;30477;48.224;11.470;2023-04-05T14:48:23;9.33;;;8.30;;
44750;SDS011;30477;48.224;11.470;2023-04-05T14:50:48;8.37;;;7.47;;
44750;SDS011;30477;48.224;11.470;2023-04-05T14:53:14;8.95;;;8.07;;
44750;SDS011;30477;48.224;11.470;2023-04-05T14:55:39;9.23;;;7.70;;
44750;SDS011;30477;48.224;11.470;2023-04-05T14:58:05;9.37;;;7.87;;
44750;SDS011;30477;48.224;11.470;2023-04-05T15:00:30;9.43;;;8.17;;
44750;SDS011;30477;48.224;11.470;2023-04-05T15:02:58;16.42;;;11.68;;
44750;SDS011;30477;48.224;11.470;2023-04-05T15:05:23;14.10;;;10.13;;
44750;SDS011;30477;48.224;11.470;2023-04-05T15:07:49;9.17;;;8.23;;
44750;SDS011;30477;48.224;11.470;2023-04-05T15:10:14;8.43;;;7.33;;